Time;durP1;ratioP1;P1;durP2;ratioP2;P2;SDS_P1;SDS_P2;PMS_P1;PMS_P2;Temp;Humidity;BMP_temperature;BMP_pressure;BME280_temperature;BME280_humidity;BME280_pressure;Samples;Min_cycle;Max_cycle;Signal;HPM_P1;HPM_P2
2021/10/16 00:01:28;;;;;;;10.00;5.03;;;;;;;;;;5063280;28;20208;-69
2021/10/16 00:03:54;;;;;;;9.07;5.07;;;;;;;;;;5059988;28;20264;-69
2021/10/16 00:06:19;;;;;;;8.00;5.60;;;;;;;;;;5062352;28;20234;-70
2021/10/16 00:08:44;;;;;;;14.77;4.80;;;;;;;;;;5066604;28;20270;-69
2021/10/16 00:11:10;;;;;;;11.00;4.87;;;;;;;;;;5069723;28;20639;-68
2021/10/16 00:13:36;;;;;;;8.23;5.30;;;;;;;;;;5068030;28;20315;-70
2021/10/16 00:16:01;;;;;;;11.23;4.80;;;;;;;;;;5070075;28;20665;-70
2021/10/16 00:18:26;;;;;;;7.83;4.77;;;;;;;;;;5065804;28;20799;-68
2021/10/16 00:20:54;;;;;;;7.53;5.07;;;;;;;;;;5048167;28;20190;-69
2021/10/16 00:23:20;;;;;;;8.97;4.87;;;;;;;;;;5073292;28;20458;-69
2021/10/16 00:25:45;;;;;;;11.80;6.57;;;;;;;;;;5076319;28;20662;-69
2021/10/16 00:28:10;;;;;;;12.47;6.17;;;;;;;;;;5070921;28;20197;-69
2021/10/16 00:30:35;;;;;;;8.43;6.20;;;;;;;;;;5071578;28;20183;-70
2021/10/16 00:33:00;;;;;;;11.60;6.07;;;;;;;;;;5068609;28;20212;-71
2021/10/16 00:35:26;;;;;;;8.27;5.07;;;;;;;;;;5074648;28;20223;-70
2021/10/16 00:37:51;;;;;;;8.60;4.93;;;;;;;;;;5073179;28;20220;-71
2021/10/16 00:40:16;;;;;;;8.10;5.70;;;;;;;;;;5077345;28;20196;-69
2021/10/16 00:42:45;;;;;;;9.17;5.70;;;;;;;;;;5071124;28;20193;-72
2021/10/16 00:45:10;;;;;;;9.10;6.10;;;;;;;;;;5071996;28;20671;-69
2021/10/16 00:47:35;;;;;;;10.50;5.83;;;;;;;;;;5067038;28;20265;-69
2021/10/16 00:50:00;;;;;;;12.43;6.07;;;;;;;;;;5059819;28;20647;-69
2021/10/16 00:52:26;;;;;;;14.10;5.80;;;;;;;;;;5062978;28;20177;-69
2021/10/16 00:54:51;;;;;;;10.77;6.70;;;;;;;;;;5070776;28;20727;-69
2021/10/16 00:57:16;;;;;;;10.87;6.03;;;;;;;;;;5060338;28;20191;-69
2021/10/16 00:59:42;;;;;;;9.63;5.83;;;;;;;;;;5061880;28;20209;-69
2021/10/16 01:02:07;;;;;;;11.60;5.80;;;;;;;;;;5055457;28;20735;-68
2021/10/16 01:04:33;;;;;;;10.57;6.67;;;;;;;;;;5059109;28;20553;-70
2021/10/16 01:06:58;;;;;;;13.53;6.53;;;;;;;;;;5059043;28;20230;-69
2021/10/16 01:09:23;;;;;;;13.47;6.30;;;;;;;;;;5068136;28;20203;-69
2021/10/16 01:11:51;;;;;;;8.43;6.27;;;;;;;;;;5063978;28;20185;-69
2021/10/16 01:14:17;;;;;;;13.40;7.00;;;;;;;;;;5070623;28;20191;-69
2021/10/16 01:16:43;;;;;;;8.87;6.13;;;;;;;;;;5063136;28;20207;-70
2021/10/16 01:19:10;;;;;;;10.10;6.53;;;;;;;;;;5062547;28;20200;-70
2021/10/16 01:21:39;;;;;;;12.63;7.67;;;;;;;;;;5060022;28;20201;-71
2021/10/16 01:24:04;;;;;;;14.30;7.83;;;;;;;;;;5049611;28;20658;-69
2021/10/16 01:26:30;;;;;;;13.43;7.17;;;;;;;;;;5065313;28;20200;-71
2021/10/16 01:28:56;;;;;;;15.83;8.67;;;;;;;;;;5061616;28;20196;-70
2021/10/16 01:31:25;;;;;;;11.30;7.57;;;;;;;;;;5065816;28;20178;-71
2021/10/16 01:33:50;;;;;;;13.40;8.10;;;;;;;;;;5069098;28;20243;-70
2021/10/16 01:36:15;;;;;;;15.43;9.03;;;;;;;;;;5067040;28;20650;-69
2021/10/16 01:38:41;;;;;;;10.77;7.33;;;;;;;;;;5066629;28;20201;-71
2021/10/16 01:41:06;;;;;;;15.57;8.13;;;;;;;;;;5066091;28;20264;-70
2021/10/16 01:43:31;;;;;;;10.47;6.90;;;;;;;;;;5066129;28;20204;-70
2021/10/16 01:45:56;;;;;;;10.73;6.43;;;;;;;;;;5064394;28;20653;-70
2021/10/16 01:48:22;;;;;;;12.33;7.07;;;;;;;;;;5064510;28;20247;-70
2021/10/16 01:50:48;;;;;;;9.90;6.17;;;;;;;;;;5067800;28;20256;-70
2021/10/16 01:53:13;;;;;;;12.90;6.60;;;;;;;;;;5065053;28;20572;-70
2021/10/16 01:55:38;;;;;;;11.87;7.07;;;;;;;;;;5065771;28;20615;-70
2021/10/16 01:58:04;;;;;;;11.70;7.77;;;;;;;;;;5073055;22;20204;-70
2021/10/16 02:00:29;;;;;;;15.10;6.13;;;;;;;;;;5065865;28;20207;-67
2021/10/16 02:02:54;;;;;;;16.00;6.50;;;;;;;;;;5061716;28;20209;-68
2021/10/16 02:05:20;;;;;;;12.33;6.47;;;;;;;;;;5058466;28;20188;-67
2021/10/16 02:07:45;;;;;;;11.53;5.90;;;;;;;;;;5049142;28;20172;-70
2021/10/16 02:10:12;;;;;;;10.90;6.33;;;;;;;;;;5060722;28;20208;-69
2021/10/16 02:12:37;;;;;;;14.03;7.30;;;;;;;;;;5062799;28;20176;-70
2021/10/16 02:15:03;;;;;;;12.47;5.83;;;;;;;;;;5059488;28;20669;-68
2021/10/16 02:17:28;;;;;;;9.47;5.77;;;;;;;;;;5063196;28;20192;-69
2021/10/16 02:19:53;;;;;;;13.67;7.43;;;;;;;;;;5065379;28;20197;-69
2021/10/16 02:22:18;;;;;;;14.63;5.93;;;;;;;;;;5062988;28;20695;-68
2021/10/16 02:24:43;;;;;;;11.80;6.10;;;;;;;;;;5061822;28;20177;-68
2021/10/16 02:27:08;;;;;;;15.03;6.63;;;;;;;;;;5063768;28;20246;-67
2021/10/16 02:29:34;;;;;;;8.70;5.47;;;;;;;;;;5065238;28;20200;-68
2021/10/16 02:31:59;;;;;;;10.63;5.57;;;;;;;;;;5069555;28;20184;-67
2021/10/16 02:34:24;;;;;;;9.63;5.50;;;;;;;;;;5069063;28;20269;-68
2021/10/16 02:36:49;;;;;;;7.63;5.20;;;;;;;;;;5065976;28;20216;-69
2021/10/16 02:39:14;;;;;;;8.87;5.47;;;;;;;;;;5067043;28;20750;-69
2021/10/16 02:41:40;;;;;;;8.97;5.47;;;;;;;;;;5066062;28;20240;-69
2021/10/16 02:44:05;;;;;;;10.10;5.53;;;;;;;;;;5062185;28;20728;-69
2021/10/16 02:46:30;;;;;;;14.10;6.57;;;;;;;;;;5073253;28;20181;-70
2021/10/16 02:48:55;;;;;;;11.63;6.10;;;;;;;;;;5060532;28;20208;-70
2021/10/16 02:51:20;;;;;;;10.33;5.50;;;;;;;;;;5064447;28;20224;-69
2021/10/16 02:53:46;;;;;;;8.93;5.57;;;;;;;;;;5067631;28;20259;-69
2021/10/16 02:56:11;;;;;;;10.20;5.93;;;;;;;;;;5051167;28;20294;-69
2021/10/16 02:58:36;;;;;;;12.03;5.20;;;;;;;;;;5060906;28;20210;-70
2021/10/16 03:01:01;;;;;;;12.30;5.50;;;;;;;;;;5071331;28;20177;-69
2021/10/16 03:03:26;;;;;;;12.47;5.13;;;;;;;;;;5063690;28;21238;-70
2021/10/16 03:05:51;;;;;;;8.97;5.13;;;;;;;;;;5063878;28;20173;-69
2021/10/16 03:08:17;;;;;;;8.83;5.13;;;;;;;;;;5059396;28;20202;-70
2021/10/16 03:10:43;;;;;;;9.10;4.53;;;;;;;;;;5067866;28;20271;-70
2021/10/16 03:13:08;;;;;;;10.00;4.83;;;;;;;;;;5065466;28;20658;-70
2021/10/16 03:15:33;;;;;;;11.67;5.37;;;;;;;;;;5062935;28;20184;-70
2021/10/16 03:17:58;;;;;;;11.13;4.70;;;;;;;;;;5064653;28;20180;-70
2021/10/16 03:20:24;;;;;;;9.77;4.77;;;;;;;;;;5064342;28;20184;-69
2021/10/16 03:22:49;;;;;;;9.33;4.53;;;;;;;;;;5060134;28;20574;-70
2021/10/16 03:25:14;;;;;;;13.27;4.93;;;;;;;;;;5058486;28;20569;-69
2021/10/16 03:27:39;;;;;;;9.80;4.30;;;;;;;;;;5066180;28;20177;-70
2021/10/16 03:30:05;;;;;;;11.20;5.13;;;;;;;;;;5068678;28;20193;-70
2021/10/16 03:32:30;;;;;;;7.67;4.40;;;;;;;;;;5067961;28;20259;-70
2021/10/16 03:34:55;;;;;;;11.13;5.00;;;;;;;;;;5065386;28;20631;-69
2021/10/16 03:37:20;;;;;;;9.93;4.10;;;;;;;;;;5064039;28;20246;-68
2021/10/16 03:39:45;;;;;;;10.13;4.37;;;;;;;;;;5060746;28;20201;-68
2021/10/16 03:42:11;;;;;;;10.27;4.77;;;;;;;;;;5068517;28;20633;-68
2021/10/16 03:44:36;;;;;;;8.40;4.43;;;;;;;;;;5063695;28;20192;-67
2021/10/16 03:47:01;;;;;;;11.60;4.70;;;;;;;;;;5070261;28;20177;-68
2021/10/16 03:49:26;;;;;;;12.37;4.70;;;;;;;;;;5064558;28;20189;-67
2021/10/16 03:51:51;;;;;;;8.33;4.03;;;;;;;;;;5071255;28;20180;-68
2021/10/16 03:54:17;;;;;;;7.90;4.97;;;;;;;;;;5065081;28;20193;-68
2021/10/16 03:56:42;;;;;;;10.97;4.97;;;;;;;;;;5064637;28;20185;-68
2021/10/16 03:59:07;;;;;;;11.90;4.90;;;;;;;;;;5060860;28;20256;-67
2021/10/16 04:01:32;;;;;;;11.50;4.73;;;;;;;;;;5070236;28;20549;-67
2021/10/16 04:03:57;;;;;;;12.20;4.43;;;;;;;;;;5065627;28;20191;-67
2021/10/16 04:06:23;;;;;;;9.53;4.20;;;;;;;;;;5062989;28;20184;-67
2021/10/16 04:08:48;;;;;;;7.73;3.93;;;;;;;;;;5052152;28;20646;-67
2021/10/16 04:11:13;;;;;;;8.60;4.33;;;;;;;;;;5068955;28;20565;-69
2021/10/16 04:13:38;;;;;;;11.90;6.43;;;;;;;;;;5058755;28;20558;-70
2021/10/16 04:16:03;;;;;;;8.63;4.80;;;;;;;;;;5068601;28;20177;-70
2021/10/16 04:18:29;;;;;;;10.77;4.53;;;;;;;;;;5057361;28;20200;-70
2021/10/16 04:20:54;;;;;;;11.87;5.80;;;;;;;;;;5062270;28;20201;-70
2021/10/16 04:23:19;;;;;;;9.20;4.70;;;;;;;;;;5045746;28;20210;-70
2021/10/16 04:25:44;;;;;;;8.67;4.20;;;;;;;;;;5054442;28;20173;-69
2021/10/16 04:28:09;;;;;;;6.83;4.63;;;;;;;;;;5067074;28;20551;-69
2021/10/16 04:30:34;;;;;;;9.83;4.60;;;;;;;;;;5061458;28;20184;-70
2021/10/16 04:33:00;;;;;;;6.23;4.50;;;;;;;;;;5064731;28;20213;-69
2021/10/16 04:35:25;;;;;;;11.70;4.90;;;;;;;;;;5067274;28;20259;-69
2021/10/16 04:37:50;;;;;;;11.00;4.50;;;;;;;;;;5064202;28;20185;-70
2021/10/16 04:40:20;;;;;;;10.97;5.30;;;;;;;;;;5058352;28;20200;-70
2021/10/16 04:42:47;;;;;;;7.53;4.40;;;;;;;;;;5063342;28;20656;-68
2021/10/16 04:45:12;;;;;;;14.97;4.97;;;;;;;;;;5050147;28;20177;-68
2021/10/16 04:47:37;;;;;;;8.63;4.30;;;;;;;;;;5070265;28;20590;-67
2021/10/16 04:50:06;;;;;;;9.33;5.40;;;;;;;;;;5068679;28;20195;-68
2021/10/16 04:52:32;;;;;;;8.87;4.40;;;;;;;;;;5061082;28;20612;-68
2021/10/16 04:54:57;;;;;;;10.43;4.90;;;;;;;;;;5060537;28;20182;-67
2021/10/16 04:57:22;;;;;;;13.60;6.07;;;;;;;;;;5060226;28;20181;-69
2021/10/16 04:59:47;;;;;;;7.37;4.80;;;;;;;;;;5062544;28;20299;-70
2021/10/16 05:02:12;;;;;;;11.83;4.87;;;;;;;;;;5058945;28;20205;-69
2021/10/16 05:04:38;;;;;;;9.33;5.07;;;;;;;;;;5064061;28;20195;-70
2021/10/16 05:07:03;;;;;;;9.07;5.40;;;;;;;;;;5061020;28;20231;-66
2021/10/16 05:09:29;;;;;;;12.40;4.10;;;;;;;;;;5063390;28;20261;-67
2021/10/16 05:11:54;;;;;;;8.17;4.57;;;;;;;;;;5065215;28;20252;-68
2021/10/16 05:14:19;;;;;;;10.97;4.03;;;;;;;;;;5063973;28;20193;-67
2021/10/16 05:16:44;;;;;;;9.97;4.07;;;;;;;;;;5064992;28;20587;-68
2021/10/16 05:19:10;;;;;;;9.63;4.10;;;;;;;;;;5064018;28;20205;-67
2021/10/16 05:21:35;;;;;;;9.00;3.63;;;;;;;;;;5062132;28;20302;-67
2021/10/16 05:24:00;;;;;;;8.47;3.80;;;;;;;;;;5063778;28;20173;-67
2021/10/16 05:26:26;;;;;;;9.87;4.27;;;;;;;;;;5057092;28;20186;-68
2021/10/16 05:28:51;;;;;;;9.77;3.83;;;;;;;;;;5041192;28;20199;-68
2021/10/16 05:31:16;;;;;;;15.80;4.57;;;;;;;;;;5066537;28;20182;-67
2021/10/16 05:33:41;;;;;;;10.67;3.60;;;;;;;;;;5057834;28;20195;-68
2021/10/16 05:36:06;;;;;;;5.67;3.40;;;;;;;;;;5043975;28;20177;-66
2021/10/16 05:38:32;;;;;;;7.13;3.50;;;;;;;;;;5059848;28;20197;-68
2021/10/16 05:40:57;;;;;;;9.50;4.87;;;;;;;;;;5061551;28;20551;-66
2021/10/16 05:43:22;;;;;;;15.60;4.77;;;;;;;;;;5064836;28;20215;-70
2021/10/16 05:45:48;;;;;;;7.37;3.47;;;;;;;;;;5056663;28;20204;-67
2021/10/16 05:48:13;;;;;;;11.33;4.20;;;;;;;;;;5057242;28;20722;-67
2021/10/16 05:50:38;;;;;;;7.73;4.07;;;;;;;;;;5059828;28;20177;-68
2021/10/16 05:53:03;;;;;;;13.97;4.47;;;;;;;;;;5067832;28;20235;-68
2021/10/16 05:55:29;;;;;;;12.43;3.70;;;;;;;;;;5068567;28;20195;-69
2021/10/16 05:57:54;;;;;;;13.13;5.33;;;;;;;;;;5068236;28;20629;-68
2021/10/16 06:00:19;;;;;;;14.27;4.40;;;;;;;;;;5058473;28;20190;-68
2021/10/16 06:02:44;;;;;;;5.70;3.43;;;;;;;;;;5066112;28;20208;-68
2021/10/16 06:05:09;;;;;;;9.00;3.83;;;;;;;;;;5068507;28;20331;-68
2021/10/16 06:07:35;;;;;;;10.67;3.63;;;;;;;;;;5065886;28;20209;-69
2021/10/16 06:10:00;;;;;;;10.40;3.90;;;;;;;;;;5066679;28;20243;-68
2021/10/16 06:12:25;;;;;;;9.87;3.83;;;;;;;;;;5066167;28;20307;-68
2021/10/16 06:14:50;;;;;;;8.43;4.20;;;;;;;;;;5064109;28;20271;-69
2021/10/16 06:17:15;;;;;;;10.67;4.93;;;;;;;;;;5062420;28;20185;-68
2021/10/16 06:19:41;;;;;;;12.90;4.67;;;;;;;;;;5062855;28;20691;-68
2021/10/16 06:22:07;;;;;;;11.77;4.03;;;;;;;;;;5062671;28;20325;-68
2021/10/16 06:24:32;;;;;;;7.70;3.53;;;;;;;;;;5060895;28;20320;-68
2021/10/16 06:26:57;;;;;;;6.90;3.10;;;;;;;;;;5067267;28;20182;-68
2021/10/16 06:29:22;;;;;;;13.27;4.37;;;;;;;;;;5063061;28;20192;-68
2021/10/16 06:31:47;;;;;;;11.07;4.27;;;;;;;;;;5067430;28;20625;-69
2021/10/16 06:34:13;;;;;;;13.07;3.67;;;;;;;;;;5066276;28;20173;-69
2021/10/16 06:36:38;;;;;;;13.97;4.23;;;;;;;;;;5069882;28;20186;-69
2021/10/16 06:39:03;;;;;;;14.37;5.03;;;;;;;;;;5065704;28;20288;-69
2021/10/16 06:41:28;;;;;;;12.83;3.37;;;;;;;;;;5062655;28;20182;-68
2021/10/16 06:43:53;;;;;;;10.30;3.40;;;;;;;;;;5067171;28;20257;-69
2021/10/16 06:46:19;;;;;;;8.23;3.43;;;;;;;;;;5070269;28;20185;-68
2021/10/16 06:48:44;;;;;;;11.63;4.50;;;;;;;;;;5059572;28;20224;-69
2021/10/16 06:51:09;;;;;;;11.47;3.23;;;;;;;;;;5065459;28;20181;-68
2021/10/16 06:53:34;;;;;;;7.50;3.10;;;;;;;;;;5068097;28;20212;-69
2021/10/16 06:56:00;;;;;;;13.20;4.13;;;;;;;;;;5069791;28;20180;-69
2021/10/16 06:58:25;;;;;;;10.77;3.33;;;;;;;;;;5071244;28;21017;-69
2021/10/16 07:00:50;;;;;;;8.93;3.27;;;;;;;;;;5071586;28;20188;-69
2021/10/16 07:03:15;;;;;;;11.43;3.40;;;;;;;;;;5060365;28;20217;-69
2021/10/16 07:05:41;;;;;;;11.27;3.93;;;;;;;;;;5066644;28;20177;-69
2021/10/16 07:08:06;;;;;;;14.00;3.83;;;;;;;;;;5066105;28;20260;-68
2021/10/16 07:10:31;;;;;;;11.93;3.00;;;;;;;;;;5065742;28;20177;-69
2021/10/16 07:13:00;;;;;;;8.40;3.50;;;;;;;;;;5064452;28;20560;-69
2021/10/16 07:15:26;;;;;;;12.17;3.13;;;;;;;;;;5067001;28;20254;-71
2021/10/16 07:17:51;;;;;;;10.93;4.13;;;;;;;;;;5064409;28;20212;-69
2021/10/16 07:20:16;;;;;;;13.17;4.13;;;;;;;;;;5065192;28;20193;-69
2021/10/16 07:22:41;;;;;;;10.10;3.10;;;;;;;;;;5067243;28;20292;-69
2021/10/16 07:25:07;;;;;;;7.33;2.67;;;;;;;;;;5068463;28;20185;-69
2021/10/16 07:27:32;;;;;;;13.10;3.70;;;;;;;;;;5054064;28;20215;-69
2021/10/16 07:29:57;;;;;;;11.37;4.13;;;;;;;;;;5067428;28;20197;-69
2021/10/16 07:32:22;;;;;;;7.80;2.90;;;;;;;;;;5073212;28;20169;-69
2021/10/16 07:34:47;;;;;;;14.23;3.60;;;;;;;;;;5073528;28;20165;-69
2021/10/16 07:37:13;;;;;;;7.93;3.03;;;;;;;;;;5071494;28;20495;-69
2021/10/16 07:39:38;;;;;;;8.83;2.77;;;;;;;;;;5071247;28;20188;-69
2021/10/16 07:42:03;;;;;;;9.63;3.13;;;;;;;;;;5073426;28;20200;-69
2021/10/16 07:44:28;;;;;;;6.67;3.20;;;;;;;;;;5073204;28;20599;-69
2021/10/16 07:46:53;;;;;;;9.50;3.03;;;;;;;;;;5055377;28;20204;-69
2021/10/16 07:49:19;;;;;;;6.53;2.80;;;;;;;;;;5071522;28;20197;-69
2021/10/16 07:51:44;;;;;;;10.20;2.90;;;;;;;;;;5067322;28;20176;-69
2021/10/16 07:54:09;;;;;;;6.05;2.65;;;;;;;;;;5065264;28;20593;-68
2021/10/16 07:56:34;;;;;;;12.63;3.23;;;;;;;;;;5064346;28;20192;-69
2021/10/16 07:58:59;;;;;;;8.47;3.07;;;;;;;;;;5067599;22;20701;-73
2021/10/16 08:01:25;;;;;;;10.47;3.27;;;;;;;;;;5064419;28;20178;-74
2021/10/16 08:03:50;;;;;;;10.63;3.30;;;;;;;;;;5069734;28;20215;-73
2021/10/16 08:06:16;;;;;;;13.52;4.25;;;;;;;;;;5073755;28;20188;-72
2021/10/16 08:08:41;;;;;;;5.70;3.05;;;;;;;;;;5067688;28;20186;-74
2021/10/16 08:11:06;;;;;;;11.68;2.92;;;;;;;;;;5072811;28;20260;-73
2021/10/16 08:13:31;;;;;;;8.80;3.15;;;;;;;;;;5073457;28;20276;-73
2021/10/16 08:15:57;;;;;;;11.10;3.45;;;;;;;;;;5072436;28;20628;-72
2021/10/16 08:18:22;;;;;;;7.57;3.28;;;;;;;;;;5067760;28;20642;-72
2021/10/16 08:20:48;;;;;;;7.65;2.95;;;;;;;;;;5072481;28;20172;-72
2021/10/16 08:23:13;;;;;;;7.55;2.58;;;;;;;;;;5064864;28;20720;-72
2021/10/16 08:25:38;;;;;;;9.43;2.88;;;;;;;;;;5068841;28;20250;-72
2021/10/16 08:28:07;;;;;;;11.70;3.63;;;;;;;;;;5059701;28;20195;-73
2021/10/16 08:30:33;;;;;;;9.68;3.15;;;;;;;;;;5067547;28;20177;-72
2021/10/16 08:32:58;;;;;;;9.77;3.33;;;;;;;;;;5067521;28;20561;-72
2021/10/16 08:35:23;;;;;;;13.20;4.15;;;;;;;;;;5069722;28;20259;-73
2021/10/16 08:37:48;;;;;;;15.65;3.58;;;;;;;;;;5064641;28;20181;-72
2021/10/16 08:40:14;;;;;;;10.07;3.50;;;;;;;;;;5062423;28;20556;-74
2021/10/16 08:42:39;;;;;;;10.68;3.25;;;;;;;;;;5061266;28;20629;-72
2021/10/16 08:45:05;;;;;;;12.02;3.47;;;;;;;;;;5066058;28;20175;-73
2021/10/16 08:47:35;;;;;;;10.27;2.83;;;;;;;;;;5059596;28;20667;-73
2021/10/16 08:50:00;;;;;;;7.50;3.15;;;;;;;;;;5061326;28;20295;-73
2021/10/16 08:52:26;;;;;;;11.05;3.60;;;;;;;;;;5061374;28;20263;-73
2021/10/16 08:54:51;;;;;;;8.60;3.42;;;;;;;;;;5064885;28;20176;-74
2021/10/16 08:57:16;;;;;;;9.80;3.58;;;;;;;;;;5071465;28;20212;-73
2021/10/16 08:59:41;;;;;;;10.65;3.63;;;;;;;;;;5070796;28;20602;-73
2021/10/16 09:02:07;;;;;;;11.63;3.20;;;;;;;;;;5069334;28;20200;-73
2021/10/16 09:04:33;;;;;;;8.13;3.20;;;;;;;;;;5062446;28;20623;-74
2021/10/16 09:06:59;;;;;;;13.70;3.20;;;;;;;;;;5070253;28;20208;-73
2021/10/16 09:09:26;;;;;;;16.58;4.88;;;;;;;;;;5065069;28;20224;-72
2021/10/16 09:11:54;;;;;;;13.20;3.70;;;;;;;;;;5057561;28;20252;-72
2021/10/16 09:14:19;;;;;;;8.95;3.25;;;;;;;;;;5067718;28;20251;-73
2021/10/16 09:16:44;;;;;;;11.45;3.20;;;;;;;;;;5059964;28;20300;-72
2021/10/16 09:19:15;;;;;;;13.35;4.05;;;;;;;;;;5062302;28;20449;-73
2021/10/16 09:21:42;;;;;;;14.63;4.57;;;;;;;;;;5064202;28;20417;-73
2021/10/16 09:24:12;;;;;;;13.60;3.70;;;;;;;;;;5061541;28;20208;-73
2021/10/16 09:26:38;;;;;;;9.35;3.40;;;;;;;;;;5062619;28;20185;-72
2021/10/16 09:29:05;;;;;;;7.80;3.20;;;;;;;;;;5063489;28;20254;-74
2021/10/16 09:31:38;;;;;;;6.53;3.28;;;;;;;;;;5060952;28;20182;-72
2021/10/16 09:34:04;;;;;;;9.73;3.80;;;;;;;;;;5059834;28;20739;-73
2021/10/16 09:36:30;;;;;;;9.52;3.40;;;;;;;;;;5060285;28;20268;-73
2021/10/16 09:38:56;;;;;;;10.05;3.65;;;;;;;;;;5064236;28;20614;-73
2021/10/16 09:41:28;;;;;;;12.00;3.55;;;;;;;;;;5063269;28;20178;-73
2021/10/16 09:43:54;;;;;;;9.77;2.88;;;;;;;;;;5066501;28;20197;-73
2021/10/16 09:46:19;;;;;;;13.55;4.10;;;;;;;;;;5065497;28;20639;-73
2021/10/16 09:48:46;;;;;;;7.65;2.80;;;;;;;;;;5064900;28;20197;-73
2021/10/16 09:51:14;;;;;;;10.50;3.10;;;;;;;;;;5062955;28;20537;-73
2021/10/16 09:53:39;;;;;;;12.50;3.30;;;;;;;;;;5062191;28;20176;-72
2021/10/16 09:56:05;;;;;;;8.43;2.90;;;;;;;;;;5063049;28;20192;-73
2021/10/16 09:58:32;;;;;;;11.52;3.25;;;;;;;;;;5054413;28;20555;-72
2021/10/16 10:00:58;;;;;;;7.43;2.70;;;;;;;;;;5068397;28;20189;-73
2021/10/16 10:03:24;;;;;;;9.75;2.80;;;;;;;;;;5065937;28;20208;-73
2021/10/16 10:05:51;;;;;;;8.90;2.80;;;;;;;;;;5062320;28;20169;-73
2021/10/16 10:08:17;;;;;;;9.05;3.55;;;;;;;;;;5058412;28;20260;-72
2021/10/16 10:10:43;;;;;;;13.18;3.70;;;;;;;;;;5062941;28;20174;-72
2021/10/16 10:13:08;;;;;;;10.93;2.67;;;;;;;;;;5062434;28;20604;-72
2021/10/16 10:15:33;;;;;;;8.20;2.72;;;;;;;;;;5064638;28;20659;-73
2021/10/16 10:17:59;;;;;;;14.73;3.83;;;;;;;;;;5062144;28;20184;-73
2021/10/16 10:20:25;;;;;;;7.72;2.90;;;;;;;;;;5064087;28;20225;-72
2021/10/16 10:22:50;;;;;;;9.63;3.10;;;;;;;;;;5065664;28;20208;-72
2021/10/16 10:25:23;;;;;;;11.65;4.20;;;;;;;;;;5063954;28;20173;-73
2021/10/16 10:27:49;;;;;;;8.70;3.30;;;;;;;;;;5064613;28;20173;-71
2021/10/16 10:30:38;;;;;;;9.48;2.75;;;;;;;;;;5056738;28;20192;-71
2021/10/16 10:33:16;;;;;;;11.27;3.67;;;;;;;;;;5064257;28;20185;-71
2021/10/16 10:36:00;;;;;;;8.93;3.25;;;;;;;;;;5062257;28;20189;-71
2021/10/16 10:38:28;;;;;;;9.55;3.42;;;;;;;;;;5070333;28;20181;-73
2021/10/16 10:40:53;;;;;;;11.73;3.88;;;;;;;;;;5064503;28;20205;-71
2021/10/16 10:43:36;;;;;;;10.02;3.53;;;;;;;;;;5063526;28;20244;-71
2021/10/16 10:46:08;;;;;;;7.35;2.80;;;;;;;;;;5061826;28;20165;-73
2021/10/16 10:48:43;;;;;;;9.93;3.55;;;;;;;;;;5064524;28;20221;-73
2021/10/16 10:51:08;;;;;;;12.48;2.72;;;;;;;;;;5067910;28;20180;-70
2021/10/16 10:53:35;;;;;;;6.15;3.03;;;;;;;;;;5064652;28;20192;-70
2021/10/16 10:56:02;;;;;;;7.90;3.03;;;;;;;;;;5064668;28;20545;-73
2021/10/16 10:58:45;;;;;;;9.73;4.15;;;;;;;;;;5063019;28;20178;-72
2021/10/16 11:01:31;;;;;;;8.35;3.17;;;;;;;;;;5068633;28;20177;-72
2021/10/16 11:04:02;;;;;;;10.63;3.60;;;;;;;;;;5061574;28;20595;-73
2021/10/16 11:06:27;;;;;;;9.13;3.10;;;;;;;;;;5068569;28;20190;-72
2021/10/16 11:08:53;;;;;;;9.88;3.30;;;;;;;;;;5066681;28;20641;-72
2021/10/16 11:11:18;;;;;;;10.30;3.75;;;;;;;;;;5063166;28;20712;-72
2021/10/16 11:13:43;;;;;;;8.05;3.72;;;;;;;;;;5067390;28;20209;-73
2021/10/16 11:16:08;;;;;;;7.90;3.30;;;;;;;;;;5065511;28;20188;-72
2021/10/16 11:18:34;;;;;;;17.13;4.03;;;;;;;;;;5068562;28;20230;-72
2021/10/16 11:21:04;;;;;;;13.25;4.57;;;;;;;;;;5061661;28;20650;-70
2021/10/16 11:23:29;;;;;;;12.05;3.63;;;;;;;;;;5067389;28;20201;-73
2021/10/16 11:26:02;;;;;;;22.30;4.27;;;;;;;;;;5067295;28;20176;-72
2021/10/16 11:28:29;;;;;;;10.40;4.18;;;;;;;;;;5066963;28;20438;-72
2021/10/16 11:30:55;;;;;;;7.75;3.40;;;;;;;;;;5066494;28;20203;-71
2021/10/16 11:33:21;;;;;;;12.50;4.45;;;;;;;;;;5063402;28;20196;-71
2021/10/16 11:35:47;;;;;;;14.30;4.03;;;;;;;;;;5069472;28;20193;-71
2021/10/16 11:38:14;;;;;;;13.38;3.95;;;;;;;;;;5063045;28;20190;-71
2021/10/16 11:40:39;;;;;;;11.27;4.00;;;;;;;;;;5060872;28;20544;-71
2021/10/16 11:43:11;;;;;;;12.45;4.60;;;;;;;;;;5069582;28;20201;-71
2021/10/16 11:45:36;;;;;;;10.30;4.13;;;;;;;;;;5059501;28;20256;-72
2021/10/16 11:48:03;;;;;;;10.90;4.15;;;;;;;;;;5062526;28;20714;-72
2021/10/16 11:50:28;;;;;;;12.30;3.47;;;;;;;;;;5061349;28;20198;-71
2021/10/16 11:53:09;;;;;;;10.17;3.97;;;;;;;;;;5058091;28;20657;-72
2021/10/16 11:55:35;;;;;;;11.77;4.70;;;;;;;;;;5069372;28;20535;-72
2021/10/16 11:58:08;;;;;;;14.80;4.22;;;;;;;;;;5064668;28;20674;-73
2021/10/16 12:00:34;;;;;;;17.13;4.45;;;;;;;;;;5064157;28;20685;-73
2021/10/16 12:03:05;;;;;;;12.20;4.80;;;;;;;;;;5057242;28;20205;-73
2021/10/16 12:05:30;;;;;;;12.90;4.63;;;;;;;;;;5069953;28;20203;-71
2021/10/16 12:07:56;;;;;;;12.52;4.68;;;;;;;;;;5063012;28;20948;-72
2021/10/16 12:10:28;;;;;;;12.57;3.83;;;;;;;;;;5067521;28;20195;-72
2021/10/16 12:13:07;;;;;;;10.65;3.72;;;;;;;;;;5062654;28;20188;-72
2021/10/16 12:15:33;;;;;;;15.75;3.90;;;;;;;;;;5066156;28;20251;-71
2021/10/16 12:17:59;;;;;;;7.93;3.13;;;;;;;;;;5060805;28;20208;-72
2021/10/16 12:20:24;;;;;;;16.38;4.65;;;;;;;;;;5059975;28;20201;-72
2021/10/16 12:22:56;;;;;;;11.10;3.17;;;;;;;;;;5063021;28;20292;-70
2021/10/16 12:25:21;;;;;;;10.75;3.53;;;;;;;;;;5068041;28;20174;-73
2021/10/16 12:28:00;;;;;;;8.50;3.08;;;;;;;;;;5061918;28;20196;-72
2021/10/16 12:30:25;;;;;;;8.15;3.10;;;;;;;;;;5065378;28;20204;-72
2021/10/16 12:33:04;;;;;;;10.30;3.67;;;;;;;;;;5064918;28;20181;-70
2021/10/16 12:35:29;;;;;;;10.52;3.50;;;;;;;;;;5066814;28;20185;-70
2021/10/16 12:37:55;;;;;;;9.25;3.40;;;;;;;;;;5062991;28;20222;-70
2021/10/16 12:40:32;;;;;;;9.55;3.63;;;;;;;;;;5065480;28;20331;-72
2021/10/16 12:42:57;;;;;;;8.63;3.20;;;;;;;;;;5065549;28;20249;-70
2021/10/16 12:45:33;;;;;;;9.60;3.50;;;;;;;;;;5070811;28;20169;-72
2021/10/16 12:48:19;;;;;;;11.63;4.07;;;;;;;;;;5065503;28;20319;-73
2021/10/16 12:50:54;;;;;;;15.57;4.75;;;;;;;;;;5060091;28;20178;-70
2021/10/16 12:53:19;;;;;;;9.32;3.75;;;;;;;;;;5069496;28;20531;-72
2021/10/16 12:55:45;;;;;;;13.73;3.50;;;;;;;;;;5064418;28;20193;-70
2021/10/16 12:58:10;;;;;;;15.32;3.92;;;;;;;;;;5063206;28;20184;-71
2021/10/16 13:00:40;;;;;;;13.15;4.00;;;;;;;;;;5065158;28;20219;-70
2021/10/16 13:03:06;;;;;;;8.40;3.85;;;;;;;;;;5069268;28;20212;-71
2021/10/16 13:05:31;;;;;;;7.20;3.33;;;;;;;;;;5065972;28;20180;-72
2021/10/16 13:07:57;;;;;;;9.32;3.75;;;;;;;;;;5069801;28;20204;-73
2021/10/16 13:10:22;;;;;;;8.75;3.75;;;;;;;;;;5066724;28;20196;-72
2021/10/16 13:12:47;;;;;;;16.15;4.38;;;;;;;;;;5068613;28;20208;-72
2021/10/16 13:15:13;;;;;;;9.43;3.88;;;;;;;;;;5064956;28;20177;-72
2021/10/16 13:17:38;;;;;;;8.30;3.65;;;;;;;;;;5067467;28;20275;-72
2021/10/16 13:20:04;;;;;;;13.98;4.68;;;;;;;;;;5059766;28;20201;-71
2021/10/16 13:22:29;;;;;;;9.18;4.03;;;;;;;;;;5068615;28;20627;-71
2021/10/16 13:24:55;;;;;;;10.43;4.20;;;;;;;;;;5063390;28;20209;-72
2021/10/16 13:27:20;;;;;;;10.00;3.90;;;;;;;;;;5066730;28;20181;-72
2021/10/16 13:29:45;;;;;;;12.32;4.03;;;;;;;;;;5068930;28;20200;-71
2021/10/16 13:32:11;;;;;;;12.82;4.60;;;;;;;;;;5063518;28;20206;-71
2021/10/16 13:34:36;;;;;;;8.30;3.70;;;;;;;;;;5065450;28;20182;-71
2021/10/16 13:37:02;;;;;;;10.00;3.83;;;;;;;;;;5067570;28;20604;-71
2021/10/16 13:39:27;;;;;;;12.02;4.40;;;;;;;;;;5062715;28;20530;-70
2021/10/16 13:41:52;;;;;;;9.13;3.80;;;;;;;;;;5069736;28;20181;-71
2021/10/16 13:44:18;;;;;;;8.15;3.72;;;;;;;;;;5066109;28;20736;-71
2021/10/16 13:46:44;;;;;;;15.32;4.25;;;;;;;;;;5066013;28;20187;-70
2021/10/16 13:49:09;;;;;;;5.40;2.67;;;;;;;;;;5067143;28;20192;-71
2021/10/16 13:51:34;;;;;;;6.10;3.03;;;;;;;;;;5068808;28;20223;-71
2021/10/16 13:54:07;;;;;;;6.17;2.90;;;;;;;;;;5065749;28;20440;-71
2021/10/16 13:56:32;;;;;;;6.57;2.28;;;;;;;;;;5064095;28;20521;-70
2021/10/16 13:58:57;;;;;;;7.30;3.33;;;;;;;;;;5073659;23;20264;-69
2021/10/16 14:01:23;;;;;;;5.40;2.67;;;;;;;;;;5047323;28;20581;-69
2021/10/16 14:03:48;;;;;;;5.15;2.08;;;;;;;;;;5049226;28;20454;-69
2021/10/16 14:06:13;;;;;;;4.87;3.07;;;;;;;;;;5050141;28;20177;-69
2021/10/16 14:08:38;;;;;;;7.13;2.10;;;;;;;;;;5049728;28;20427;-69
2021/10/16 14:11:03;;;;;;;5.13;2.03;;;;;;;;;;5062526;28;20915;-69
2021/10/16 14:13:29;;;;;;;9.37;2.70;;;;;;;;;;5060595;28;20614;-69
2021/10/16 14:15:54;;;;;;;4.15;2.10;;;;;;;;;;5060763;28;20479;-69
2021/10/16 14:18:19;;;;;;;6.93;2.60;;;;;;;;;;5052249;28;20634;-69
2021/10/16 14:20:44;;;;;;;7.97;3.07;;;;;;;;;;5059362;28;20443;-70
2021/10/16 14:23:10;;;;;;;7.00;2.67;;;;;;;;;;5061902;28;20848;-69
2021/10/16 14:25:35;;;;;;;6.80;2.83;;;;;;;;;;5065884;28;20243;-69
2021/10/16 14:28:01;;;;;;;7.97;3.05;;;;;;;;;;5065508;28;20222;-69
2021/10/16 14:30:26;;;;;;;9.93;2.83;;;;;;;;;;5070643;28;20201;-69